createdAt,value
2022-08-26T00:01:56.787Z,22.88
2022-08-26T00:04:25.782Z,22.85
2022-08-26T00:06:54.965Z,22.81
2022-08-26T00:09:24.946Z,22.79
2022-08-26T00:11:54.660Z,22.72
2022-08-26T00:14:22.899Z,22.73
2022-08-26T00:16:52.533Z,22.65
2022-08-26T00:19:22.420Z,22.58
2022-08-26T00:21:50.460Z,22.52
2022-08-26T00:24:21.013Z,22.50
2022-08-26T00:26:48.541Z,22.46
2022-08-26T00:29:16.402Z,22.45
2022-08-26T00:31:45.082Z,22.46
2022-08-26T00:34:13.924Z,22.40
2022-08-26T00:36:41.128Z,22.41
2022-08-26T00:39:09.065Z,22.47
2022-08-26T00:41:40.101Z,22.46
2022-08-26T00:44:08.281Z,22.49
2022-08-26T00:46:46.425Z,22.51
2022-08-26T00:49:20.042Z,22.55
2022-08-26T00:51:53.160Z,22.59
2022-08-26T00:54:23.180Z,22.59
2022-08-26T00:57:00.071Z,22.61
2022-08-26T00:59:29.489Z,22.51
2022-08-26T01:02:02.741Z,22.48
2022-08-26T01:04:31.662Z,22.44
2022-08-26T01:07:00.304Z,22.36
2022-08-26T01:09:28.442Z,22.31
2022-08-26T01:11:59.202Z,22.29
2022-08-26T01:14:29.936Z,22.22
2022-08-26T01:16:57.281Z,22.19
2022-08-26T01:19:31.482Z,22.20
2022-08-26T01:22:02.980Z,22.17
2022-08-26T01:24:31.221Z,22.20
2022-08-26T01:27:01.880Z,22.21
2022-08-26T01:29:30.240Z,22.20
2022-08-26T01:31:59.007Z,22.18
2022-08-26T01:34:37.863Z,22.18
2022-08-26T01:37:13.620Z,22.17
2022-08-26T01:39:45.078Z,22.17
2022-08-26T01:42:15.121Z,22.15
2022-08-26T01:44:59.720Z,22.15
2022-08-26T01:47:30.144Z,22.09
2022-08-26T01:50:02.898Z,22.11
2022-08-26T01:52:32.881Z,22.11
2022-08-26T01:55:01.128Z,22.11
2022-08-26T01:57:29.301Z,22.16
2022-08-26T01:59:58.639Z,22.17
2022-08-26T02:02:26.542Z,22.17
2022-08-26T02:05:01.861Z,22.14
2022-08-26T02:07:29.920Z,22.14
2022-08-26T02:09:57.162Z,22.12
2022-08-26T02:12:26.676Z,22.12
2022-08-26T02:14:58.460Z,22.15
2022-08-26T02:17:33.199Z,22.16
2022-08-26T02:20:02.940Z,22.20
2022-08-26T02:22:31.100Z,22.19
2022-08-26T02:25:12.180Z,22.21
2022-08-26T02:27:39.943Z,22.21
2022-08-26T02:30:12.442Z,22.23
2022-08-26T02:32:41.438Z,22.24
2022-08-26T02:35:10.402Z,22.12
2022-08-26T02:37:38.321Z,22.13
2022-08-26T02:40:12.289Z,22.10
2022-08-26T02:42:39.385Z,22.08
2022-08-26T02:45:07.679Z,22.06
2022-08-26T02:47:35.180Z,21.98
2022-08-26T02:50:02.276Z,22.00
2022-08-26T02:52:29.340Z,22.02
2022-08-26T02:54:56.401Z,22.02
2022-08-26T02:57:23.981Z,22.03
2022-08-26T02:59:51.584Z,22.07
2022-08-26T03:02:18.756Z,22.10
2022-08-26T03:04:57.725Z,22.11
2022-08-26T03:07:30.001Z,22.13
2022-08-26T03:09:58.120Z,22.15
2022-08-26T03:12:25.591Z,22.15
2022-08-26T03:14:53.480Z,22.11
2022-08-26T03:17:21.380Z,22.12
2022-08-26T03:19:51.824Z,22.07
2022-08-26T03:22:21.841Z,22.12
2022-08-26T03:24:49.783Z,22.15
2022-08-26T03:27:16.820Z,22.13
2022-08-26T03:30:02.921Z,22.20
2022-08-26T03:32:29.968Z,22.21
2022-08-26T03:34:58.120Z,22.20
2022-08-26T03:37:25.340Z,22.23
2022-08-26T03:39:53.024Z,22.22
2022-08-26T03:42:22.360Z,21.84
2022-08-26T03:44:50.089Z,21.84
2022-08-26T03:47:17.440Z,21.85
2022-08-26T03:49:44.520Z,21.79
2022-08-26T03:52:12.329Z,21.83
2022-08-26T03:54:41.090Z,21.83
2022-08-26T03:57:11.580Z,21.80
2022-08-26T03:59:38.760Z,21.82
2022-08-26T04:02:11.476Z,21.85
2022-08-26T04:04:38.960Z,21.86
2022-08-26T04:07:06.060Z,21.85
2022-08-26T04:09:35.284Z,21.77
2022-08-26T04:12:03.897Z,21.72
2022-08-26T04:14:32.580Z,21.73
2022-08-26T04:16:59.740Z,21.70
2022-08-26T04:19:27.061Z,21.72
2022-08-26T04:21:54.511Z,21.71
2022-08-26T04:24:24.503Z,21.66
2022-08-26T04:26:51.733Z,21.64
2022-08-26T04:29:24.234Z,21.62
2022-08-26T04:31:55.517Z,21.60
2022-08-26T04:34:28.983Z,21.58
2022-08-26T04:36:58.169Z,21.59
2022-08-26T04:39:25.694Z,21.63
2022-08-26T04:41:55.408Z,21.64
2022-08-26T04:44:25.124Z,21.63
2022-08-26T04:46:52.567Z,21.64
2022-08-26T04:49:20.695Z,21.64
2022-08-26T04:51:49.075Z,21.66
2022-08-26T04:54:16.543Z,21.70
2022-08-26T04:56:46.773Z,21.75
2022-08-26T04:59:16.603Z,21.77
2022-08-26T05:01:49.684Z,21.79
2022-08-26T05:04:19.238Z,21.85
2022-08-26T05:06:48.465Z,21.90
2022-08-26T05:09:16.173Z,22.03
2022-08-26T05:11:43.133Z,22.14
2022-08-26T05:14:10.285Z,22.33
2022-08-26T05:16:40.305Z,22.51
2022-08-26T05:19:08.466Z,22.63
2022-08-26T05:21:36.813Z,22.67
2022-08-26T05:24:06.064Z,22.77
2022-08-26T05:26:33.393Z,22.78
2022-08-26T05:29:01.694Z,22.77
2022-08-26T05:31:31.916Z,22.79
2022-08-26T05:34:00.432Z,22.82
2022-08-26T05:36:33.898Z,22.87
2022-08-26T05:39:03.990Z,22.88
2022-08-26T05:41:38.358Z,22.96
2022-08-26T05:44:10.463Z,23.06
2022-08-26T05:46:39.180Z,23.12
2022-08-26T05:49:12.266Z,23.24
2022-08-26T05:51:41.977Z,23.37
2022-08-26T05:54:10.377Z,23.50
2022-08-26T05:56:38.617Z,23.59
2022-08-26T05:59:06.794Z,23.63
2022-08-26T06:01:42.761Z,23.71
2022-08-26T06:04:10.637Z,23.78
2022-08-26T06:06:41.505Z,23.84
2022-08-26T06:09:11.163Z,23.89
2022-08-26T06:11:39.144Z,23.93
2022-08-26T06:14:08.293Z,23.99
2022-08-26T06:16:40.916Z,24.07
2022-08-26T06:19:11.033Z,24.14
2022-08-26T06:21:41.620Z,24.18
2022-08-26T06:24:29.613Z,24.23
2022-08-26T06:27:01.622Z,24.31
2022-08-26T06:29:31.647Z,24.39
2022-08-26T06:31:58.812Z,24.47
2022-08-26T06:34:30.323Z,24.57
2022-08-26T06:37:02.715Z,24.64
2022-08-26T06:39:31.639Z,24.69
2022-08-26T06:42:03.179Z,24.76
2022-08-26T06:44:34.504Z,24.90
2022-08-26T06:47:01.572Z,24.92
2022-08-26T06:49:28.708Z,25.02
2022-08-26T06:51:58.849Z,25.06
2022-08-26T06:54:31.943Z,25.12
2022-08-26T06:56:59.895Z,25.19
2022-08-26T06:59:26.972Z,25.25
2022-08-26T07:01:55.047Z,25.32
2022-08-26T07:04:23.440Z,25.42
2022-08-26T07:06:52.951Z,25.55
2022-08-26T07:09:22.800Z,25.63
2022-08-26T07:11:51.556Z,25.69
2022-08-26T07:14:21.190Z,25.76
2022-08-26T07:16:50.532Z,25.80
2022-08-26T07:19:31.015Z,25.88
2022-08-26T07:22:04.937Z,25.97
2022-08-26T07:24:35.015Z,26.05
2022-08-26T07:27:06.914Z,26.18
2022-08-26T07:29:37.373Z,26.18
2022-08-26T07:32:05.294Z,26.38
2022-08-26T07:34:33.163Z,26.41
2022-08-26T07:37:01.197Z,26.52
2022-08-26T07:39:31.344Z,26.61
2022-08-26T07:42:07.730Z,26.70
2022-08-26T07:44:40.509Z,26.72
2022-08-26T07:47:24.269Z,26.82
2022-08-26T07:49:55.218Z,26.89
2022-08-26T07:52:26.195Z,26.80
2022-08-26T07:54:55.728Z,26.95
2022-08-26T07:57:24.259Z,26.98
2022-08-26T07:59:52.394Z,27.13
2022-08-26T08:02:24.644Z,27.17
2022-08-26T08:04:52.057Z,27.11
2022-08-26T08:07:19.184Z,27.21
2022-08-26T08:09:49.646Z,27.32
2022-08-26T08:12:17.994Z,27.44
2022-08-26T08:14:47.047Z,27.54
2022-08-26T08:17:15.743Z,27.66
2022-08-26T08:19:42.923Z,27.79
2022-08-26T08:22:17.992Z,27.92
2022-08-26T08:24:49.962Z,28.02
2022-08-26T08:27:23.844Z,28.00
2022-08-26T08:29:55.015Z,28.16
2022-08-26T08:32:23.275Z,28.24
2022-08-26T08:34:50.392Z,28.33
2022-08-26T08:37:17.674Z,28.44
2022-08-26T08:39:44.805Z,28.53
2022-08-26T08:42:16.265Z,28.61
2022-08-26T08:44:52.250Z,28.68
2022-08-26T08:47:24.864Z,28.75
2022-08-26T08:49:54.763Z,28.89
2022-08-26T08:52:37.827Z,28.98
2022-08-26T08:55:11.167Z,29.07
2022-08-26T08:58:08.029Z,29.16
2022-08-26T09:00:46.837Z,29.21
2022-08-26T09:03:38.491Z,29.41
2022-08-26T09:06:17.352Z,29.51
2022-08-26T09:08:50.023Z,29.62
2022-08-26T09:11:20.000Z,29.75
2022-08-26T09:13:52.954Z,29.86
2022-08-26T09:17:00.730Z,29.91
2022-08-26T09:19:44.630Z,30.10
2022-08-26T09:22:27.307Z,30.14
2022-08-26T09:24:54.314Z,30.27
2022-08-26T09:27:50.524Z,30.41
2022-08-26T09:30:26.905Z,30.59
2022-08-26T09:33:10.073Z,30.44
2022-08-26T09:35:40.223Z,30.64
2022-08-26T09:38:23.865Z,30.84
2022-08-26T09:41:00.080Z,31.14
2022-08-26T09:43:28.824Z,31.12
2022-08-26T09:46:19.519Z,31.38
2022-08-26T09:48:46.954Z,31.48
2022-08-26T09:51:24.909Z,31.60
2022-08-26T09:54:02.932Z,31.39
2022-08-26T09:56:39.176Z,31.47
2022-08-26T09:59:11.122Z,31.81
2022-08-26T10:01:43.277Z,31.98
2022-08-26T10:04:14.205Z,32.16
2022-08-26T10:06:57.922Z,32.20
2022-08-26T10:09:26.083Z,32.42
2022-08-26T10:12:07.554Z,32.50
2022-08-26T10:14:46.631Z,32.51
2022-08-26T10:17:25.514Z,32.68
2022-08-26T10:20:23.197Z,32.43
2022-08-26T10:23:20.615Z,32.75
2022-08-26T10:26:22.991Z,32.93
2022-08-26T10:29:01.645Z,33.04
2022-08-26T10:31:51.473Z,33.14
2022-08-26T10:34:21.233Z,33.24
2022-08-26T10:37:13.810Z,33.38
2022-08-26T10:39:49.130Z,33.49
2022-08-26T10:42:46.455Z,33.58
2022-08-26T10:45:22.462Z,33.61
2022-08-26T10:48:00.308Z,33.67
2022-08-26T10:50:39.061Z,33.73
2022-08-26T10:53:25.171Z,33.89
2022-08-26T10:56:15.871Z,34.10
2022-08-26T10:59:15.473Z,34.17
2022-08-26T11:13:59.738Z,33.83
2022-08-26T11:16:48.486Z,34.07
2022-08-26T11:19:50.595Z,34.29
2022-08-26T11:22:45.472Z,34.55
2022-08-26T11:25:19.612Z,34.68
2022-08-26T11:27:52.635Z,34.75
2022-08-26T11:30:20.425Z,34.76
2022-08-26T11:32:53.926Z,34.69
2022-08-26T11:35:20.934Z,34.87
2022-08-26T11:37:48.468Z,34.75
2022-08-26T11:40:22.457Z,34.90
2022-08-26T11:42:57.313Z,34.95
2022-08-26T11:45:37.810Z,35.12
2022-08-26T11:48:21.804Z,35.31
2022-08-26T11:51:03.084Z,35.48
2022-08-26T11:53:33.345Z,35.55
2022-08-26T11:56:04.864Z,35.77
2022-08-26T11:58:32.423Z,35.96
2022-08-26T12:01:03.565Z,36.02
2022-08-26T12:03:39.997Z,35.92
2022-08-26T12:09:28.973Z,36.23
2022-08-26T12:12:12.125Z,36.14
2022-08-26T12:14:39.775Z,36.08
2022-08-26T12:17:11.455Z,36.28
2022-08-26T12:19:39.024Z,36.32
2022-08-26T12:22:26.076Z,36.46
2022-08-26T12:25:04.366Z,36.31
2022-08-26T12:27:41.745Z,36.52
2022-08-26T12:30:14.918Z,36.76
2022-08-26T12:33:03.306Z,36.83
2022-08-26T12:35:49.300Z,37.00
2022-08-26T12:38:20.328Z,37.16
2022-08-26T12:40:50.325Z,37.25
2022-08-26T12:43:37.603Z,37.28
2022-08-26T12:46:06.781Z,37.33
2022-08-26T12:48:38.724Z,37.17
2022-08-26T12:51:20.285Z,37.03
2022-08-26T12:53:47.384Z,37.09
2022-08-26T12:56:39.168Z,37.00
2022-08-26T12:59:25.304Z,37.07
2022-08-26T13:01:53.811Z,37.17
2022-08-26T13:04:41.770Z,37.27
2022-08-26T13:07:15.796Z,37.34
2022-08-26T13:09:43.037Z,37.26
2022-08-26T13:12:11.785Z,37.15
2022-08-26T13:14:38.876Z,37.04
2022-08-26T13:17:05.918Z,37.13
2022-08-26T13:19:33.214Z,37.17
2022-08-26T13:22:01.093Z,37.30
2022-08-26T13:24:41.039Z,37.43
2022-08-26T13:27:11.495Z,37.47
2022-08-26T13:29:38.670Z,37.57
2022-08-26T13:32:07.965Z,37.66
2022-08-26T13:34:38.106Z,37.72
2022-08-26T13:37:05.492Z,37.65
2022-08-26T13:39:32.554Z,37.86
2022-08-26T13:42:00.337Z,37.87
2022-08-26T13:44:27.905Z,38.00
2022-08-26T13:46:55.097Z,38.27
2022-08-26T13:49:22.844Z,38.31
2022-08-26T13:51:49.924Z,38.39
2022-08-26T13:54:17.125Z,38.40
2022-08-26T13:56:44.134Z,38.30
2022-08-26T13:59:11.424Z,38.20
2022-08-26T14:01:39.924Z,38.07
2022-08-26T14:04:07.738Z,38.12
2022-08-26T14:06:34.695Z,37.80
2022-08-26T14:09:01.789Z,37.95
2022-08-26T14:11:30.345Z,37.94
2022-08-26T14:14:08.443Z,37.81
2022-08-26T14:16:58.956Z,38.00
2022-08-26T14:19:26.865Z,37.77
2022-08-26T14:21:53.865Z,37.66
2022-08-26T14:24:20.925Z,37.56
2022-08-26T14:26:48.718Z,37.43
2022-08-26T14:29:16.872Z,37.46
2022-08-26T14:31:44.382Z,37.36
2022-08-26T14:34:13.305Z,37.35
2022-08-26T14:36:40.294Z,37.19
2022-08-26T14:39:11.074Z,37.22
2022-08-26T14:41:53.841Z,37.17
2022-08-26T14:44:24.888Z,37.15
2022-08-26T14:46:53.403Z,37.19
2022-08-26T14:49:22.260Z,37.13
2022-08-26T14:51:49.417Z,37.25
2022-08-26T14:54:18.355Z,37.48
2022-08-26T14:56:51.954Z,37.78
2022-08-26T14:59:25.471Z,38.04
2022-08-26T15:01:53.692Z,38.06
2022-08-26T15:04:21.746Z,38.13
2022-08-26T15:06:49.894Z,37.93
2022-08-26T15:09:17.246Z,37.76
2022-08-26T15:11:44.743Z,37.61
2022-08-26T15:14:19.852Z,37.36
2022-08-26T15:16:49.029Z,37.29
2022-08-26T15:19:17.005Z,37.16
2022-08-26T15:21:45.629Z,36.92
2022-08-26T15:24:13.606Z,36.80
2022-08-26T15:26:40.967Z,36.59
2022-08-26T15:29:08.037Z,36.36
2022-08-26T15:31:35.766Z,36.01
2022-08-26T15:34:13.256Z,35.93
2022-08-26T15:36:45.054Z,35.69
2022-08-26T15:39:12.859Z,35.49
2022-08-26T15:41:41.905Z,35.30
2022-08-26T15:44:10.594Z,35.04
2022-08-26T15:46:38.413Z,34.81
2022-08-26T15:49:06.507Z,34.61
2022-08-26T15:51:45.676Z,34.47
2022-08-26T15:54:14.468Z,34.29
2022-08-26T15:56:41.663Z,34.15
2022-08-26T15:59:11.921Z,34.02
2022-08-26T16:01:39.952Z,33.92
2022-08-26T16:04:07.406Z,33.64
2022-08-26T16:06:37.406Z,33.68
2022-08-26T16:09:05.787Z,33.56
2022-08-26T16:11:34.264Z,33.44
2022-08-26T16:14:01.426Z,33.32
2022-08-26T16:16:28.543Z,33.18
2022-08-26T16:18:55.765Z,33.01
2022-08-26T16:21:28.119Z,32.89
2022-08-26T16:23:57.263Z,32.70
2022-08-26T16:26:30.056Z,32.55
2022-08-26T16:28:57.086Z,32.61
2022-08-26T16:31:24.431Z,32.55
2022-08-26T16:33:51.758Z,32.45
2022-08-26T16:36:20.076Z,32.44
2022-08-26T16:38:56.622Z,32.30
2022-08-26T16:41:27.667Z,32.19
2022-08-26T16:43:55.402Z,32.09
2022-08-26T16:46:25.897Z,32.03
2022-08-26T16:48:55.325Z,31.95
2022-08-26T16:51:23.855Z,31.85
2022-08-26T16:53:51.786Z,31.76
2022-08-26T16:56:22.824Z,31.67
2022-08-26T16:58:50.457Z,31.57
2022-08-26T17:01:17.995Z,31.42
2022-08-26T17:03:45.074Z,31.35
2022-08-26T17:06:12.434Z,31.24
2022-08-26T17:08:41.114Z,31.14
2022-08-26T17:11:08.934Z,31.08
2022-08-26T17:13:36.752Z,30.99
2022-08-26T17:16:07.670Z,30.90
2022-08-26T17:18:36.084Z,30.80
2022-08-26T17:21:04.274Z,30.69
2022-08-26T17:23:31.824Z,30.58
2022-08-26T17:25:58.792Z,30.49
2022-08-26T17:28:25.887Z,30.42
2022-08-26T17:30:52.921Z,30.32
2022-08-26T17:33:24.534Z,30.24
2022-08-26T17:35:52.034Z,30.12
2022-08-26T17:38:19.756Z,30.06
2022-08-26T17:40:46.719Z,29.92
2022-08-26T17:43:13.799Z,29.87
2022-08-26T17:45:40.906Z,29.78
2022-08-26T17:48:08.873Z,29.73
2022-08-26T17:50:39.395Z,29.64
2022-08-26T17:53:06.458Z,29.57
2022-08-26T17:55:33.858Z,29.51
2022-08-26T17:58:00.927Z,29.46
2022-08-26T18:00:33.344Z,29.38
2022-08-26T18:03:00.461Z,29.33
2022-08-26T18:05:27.715Z,29.24
2022-08-26T18:07:54.752Z,29.18
2022-08-26T18:10:22.448Z,29.10
2022-08-26T18:12:49.466Z,29.08
2022-08-26T18:15:18.702Z,28.98
2022-08-26T18:17:46.022Z,28.92
2022-08-26T18:20:16.923Z,28.83
2022-08-26T18:22:44.994Z,28.73
2022-08-26T18:25:12.997Z,28.63
2022-08-26T18:27:40.179Z,28.62
2022-08-26T18:30:16.607Z,28.54
2022-08-26T18:32:44.310Z,28.49
2022-08-26T18:35:11.745Z,28.40
2022-08-26T18:37:38.948Z,28.36
2022-08-26T18:40:08.674Z,28.32
2022-08-26T18:42:36.444Z,28.28
2022-08-26T18:45:06.204Z,28.25
2022-08-26T18:47:33.706Z,28.15
2022-08-26T18:50:01.406Z,28.10
2022-08-26T18:52:28.544Z,28.08
2022-08-26T18:54:55.817Z,28.00
2022-08-26T18:57:22.965Z,27.92
2022-08-26T18:59:50.374Z,27.89
2022-08-26T19:02:17.719Z,27.84
2022-08-26T19:04:44.786Z,27.79
2022-08-26T19:07:12.001Z,27.75
2022-08-26T19:09:38.995Z,27.69
2022-08-26T19:12:06.423Z,27.65
2022-08-26T19:14:36.043Z,27.62
2022-08-26T19:17:04.696Z,27.56
2022-08-26T19:19:32.375Z,27.56
2022-08-26T19:21:59.920Z,27.45
2022-08-26T19:24:28.069Z,27.48
2022-08-26T19:26:58.863Z,27.42
2022-08-26T19:29:29.075Z,27.40
2022-08-26T19:31:56.766Z,27.37
2022-08-26T19:34:24.854Z,27.32
2022-08-26T19:36:53.742Z,27.25
2022-08-26T19:39:21.904Z,27.24
2022-08-26T19:41:49.652Z,27.19
2022-08-26T19:44:37.727Z,27.10
2022-08-26T19:47:07.269Z,27.09
2022-08-26T19:49:35.135Z,27.07
2022-08-26T19:52:06.227Z,27.01
2022-08-26T19:54:34.375Z,26.84
2022-08-26T19:57:01.487Z,26.83
2022-08-26T19:59:29.446Z,26.81
2022-08-26T20:02:01.210Z,26.77
2022-08-26T20:04:31.120Z,26.76
2022-08-26T20:07:00.406Z,26.76
2022-08-26T20:09:33.056Z,26.74
2022-08-26T20:12:01.367Z,26.70
2022-08-26T20:14:30.057Z,26.70
2022-08-26T20:16:57.528Z,26.64
2022-08-26T20:19:43.352Z,26.63
2022-08-26T20:22:11.482Z,26.62
2022-08-26T20:24:38.807Z,26.57
2022-08-26T20:27:08.132Z,26.52
2022-08-26T20:29:36.541Z,26.49
2022-08-26T20:32:06.451Z,26.51
2022-08-26T20:34:34.475Z,26.51
2022-08-26T20:37:02.575Z,26.48
2022-08-26T20:39:30.464Z,26.46
2022-08-26T20:41:58.107Z,26.47
2022-08-26T20:44:25.449Z,26.36
2022-08-26T20:46:52.826Z,26.35
2022-08-26T20:49:19.868Z,26.42
2022-08-26T20:51:51.058Z,26.38
2022-08-26T20:54:19.530Z,26.40
2022-08-26T20:56:46.655Z,26.43
2022-08-26T20:59:14.446Z,26.40
2022-08-26T21:01:42.521Z,26.35
2022-08-26T21:04:18.890Z,26.27
2022-08-26T21:06:52.712Z,26.23
2022-08-26T21:09:24.866Z,26.15
2022-08-26T21:11:53.090Z,26.09
2022-08-26T21:14:20.836Z,25.97
2022-08-26T21:16:48.037Z,25.90
2022-08-26T21:19:18.156Z,25.76
2022-08-26T21:21:46.869Z,25.71
2022-08-26T21:24:14.598Z,25.68
2022-08-26T21:26:42.048Z,25.61
2022-08-26T21:29:10.080Z,25.53
2022-08-26T21:31:42.281Z,25.48
2022-08-26T21:34:13.411Z,25.48
2022-08-26T21:36:40.387Z,25.47
2022-08-26T21:39:11.470Z,25.49
2022-08-26T21:41:40.969Z,25.51
2022-08-26T21:44:08.445Z,25.49
2022-08-26T21:46:37.460Z,25.53
2022-08-26T21:49:07.635Z,25.53
2022-08-26T21:51:37.745Z,25.59
2022-08-26T21:54:10.755Z,25.58
2022-08-26T21:56:41.505Z,25.48
2022-08-26T21:59:09.469Z,25.39
2022-08-26T22:01:38.049Z,25.34
2022-08-26T22:04:07.315Z,25.20
2022-08-26T22:06:39.614Z,25.13
2022-08-26T22:09:06.667Z,25.09
2022-08-26T22:11:33.767Z,24.97
2022-08-26T22:14:00.904Z,24.93
2022-08-26T22:16:28.880Z,24.91
2022-08-26T22:18:55.893Z,24.90
2022-08-26T22:21:24.724Z,24.88
2022-08-26T22:23:52.566Z,24.84
2022-08-26T22:26:27.384Z,24.83
2022-08-26T22:28:59.226Z,24.82
2022-08-26T22:31:38.133Z,24.78
2022-08-26T22:34:12.205Z,24.73
2022-08-26T22:36:43.961Z,24.71
2022-08-26T22:39:13.855Z,24.73
2022-08-26T22:41:43.173Z,24.69
2022-08-26T22:44:12.059Z,24.67
2022-08-26T22:46:40.145Z,24.60
2022-08-26T22:49:07.965Z,24.54
2022-08-26T22:51:35.027Z,24.51
2022-08-26T22:54:02.108Z,24.51
2022-08-26T22:56:29.128Z,24.52
2022-08-26T22:58:56.289Z,24.52
2022-08-26T23:01:24.088Z,24.56
2022-08-26T23:03:51.181Z,24.57
2022-08-26T23:06:18.214Z,24.56
2022-08-26T23:08:46.615Z,24.53
2022-08-26T23:11:15.224Z,24.55
2022-08-26T23:13:42.658Z,24.57
2022-08-26T23:16:11.930Z,24.57
2022-08-26T23:18:41.034Z,24.57
2022-08-26T23:21:08.550Z,24.60
2022-08-26T23:23:37.194Z,24.60
2022-08-26T23:26:06.444Z,24.61
2022-08-26T23:28:34.955Z,24.58
2022-08-26T23:31:02.066Z,24.61
2022-08-26T23:33:49.515Z,24.62
2022-08-26T23:36:22.559Z,24.61
2022-08-26T23:38:52.783Z,24.67
2022-08-26T23:41:22.896Z,24.66
2022-08-26T23:43:50.825Z,24.67
2022-08-26T23:46:18.625Z,24.64
2022-08-26T23:48:45.835Z,24.54
2022-08-26T23:51:31.445Z,24.44
2022-08-26T23:53:58.537Z,24.32
2022-08-26T23:56:26.740Z,24.40
2022-08-26T23:58:54.893Z,24.28
